createdAt,value
2022-09-17T00:01:25.053Z,55.9
2022-09-17T00:21:25.016Z,56.0
2022-09-17T00:41:24.963Z,56.1
2022-09-17T01:01:24.953Z,56.1
2022-09-17T01:21:24.928Z,56.1
2022-09-17T01:41:25.022Z,56.2
2022-09-17T02:01:24.982Z,56.2
2022-09-17T02:21:24.878Z,56.2
2022-09-17T02:41:24.821Z,56.3
2022-09-17T03:01:24.827Z,56.3
2022-09-17T03:21:24.760Z,56.3
2022-09-17T03:41:24.797Z,56.4
2022-09-17T04:01:24.876Z,56.4
2022-09-17T04:21:24.774Z,56.4
2022-09-17T04:41:24.837Z,56.4
2022-09-17T05:01:24.666Z,56.4
2022-09-17T05:21:24.714Z,56.5
2022-09-17T05:41:24.724Z,56.5
2022-09-17T06:01:24.583Z,56.5
2022-09-17T06:21:24.546Z,55.7
2022-09-17T06:41:24.497Z,54.9
2022-09-17T07:01:24.510Z,54.7
2022-09-17T07:21:24.500Z,54.7
2022-09-17T07:41:24.483Z,54.5
2022-09-17T08:01:24.431Z,54.4
2022-09-17T08:21:24.394Z,55.2
2022-09-17T08:41:24.385Z,55.6
2022-09-17T09:01:24.348Z,52.5
2022-09-17T09:21:24.322Z,52.0
2022-09-17T09:41:24.302Z,51.3
2022-09-17T10:01:24.288Z,51.6
2022-09-17T10:21:24.244Z,49.5
2022-09-17T10:41:24.210Z,48.1
2022-09-17T11:01:24.170Z,48.1
2022-09-17T11:21:24.192Z,49.7
2022-09-17T11:41:24.132Z,51.1
2022-09-17T12:01:24.142Z,52.3
2022-09-17T12:21:24.111Z,52.9
2022-09-17T12:41:24.115Z,53.2
2022-09-17T13:01:24.045Z,53.4
2022-09-17T13:21:24.130Z,53.6
2022-09-17T13:41:24.088Z,53.6
2022-09-17T14:01:23.995Z,53.6
2022-09-17T14:21:23.926Z,53.7
2022-09-17T14:41:24.033Z,53.7
2022-09-17T15:01:23.865Z,53.7
2022-09-17T15:21:23.997Z,53.8
2022-09-17T15:41:24.000Z,53.7
2022-09-17T16:01:23.872Z,53.8
2022-09-17T16:21:23.933Z,53.8
2022-09-17T16:41:23.738Z,54.1
2022-09-17T17:01:23.872Z,54.5
2022-09-17T17:21:23.823Z,54.7
2022-09-17T17:41:23.789Z,55.0
2022-09-17T18:01:23.722Z,55.1
2022-09-17T18:21:23.715Z,55.0
2022-09-17T18:41:23.720Z,55.0
2022-09-17T19:01:23.556Z,54.9
2022-09-17T19:21:23.681Z,54.7
2022-09-17T19:41:23.642Z,54.7
2022-09-17T20:01:23.598Z,54.7
2022-09-17T20:21:23.620Z,54.7
2022-09-17T20:41:23.587Z,54.6
2022-09-17T21:01:23.463Z,54.6
2022-09-17T21:21:23.435Z,54.6
2022-09-17T21:41:23.402Z,54.5
2022-09-17T22:01:23.373Z,54.7
2022-09-17T22:21:23.351Z,54.7
2022-09-17T22:41:23.310Z,54.8
2022-09-17T23:01:23.295Z,54.8
2022-09-17T23:21:23.256Z,54.8
2022-09-17T23:41:23.202Z,54.8
